sensor_id;sensor_type;location;lat;lon;timestamp;pressure;altitude;pressure_sealevel;temperature;humidity
24788;BME280;12883;52.662;5.196;2023-03-03T00:02:06;102666.66;;;3.54;100.00
24788;BME280;12883;52.662;5.196;2023-03-03T00:04:31;102671.53;;;3.48;100.00
24788;BME280;12883;52.662;5.196;2023-03-03T00:06:57;102671.28;;;3.51;100.00
24788;BME280;12883;52.662;5.196;2023-03-03T00:09:22;102666.69;;;3.42;100.00
24788;BME280;12883;52.662;5.196;2023-03-03T00:11:54;102669.97;;;3.33;100.00
24788;BME280;12883;52.662;5.196;2023-03-03T00:14:39;102658.84;;;3.17;100.00
24788;BME280;12883;52.662;5.196;2023-03-03T00:17:23;102672.78;;;3.30;100.00
24788;BME280;12883;52.662;5.196;2023-03-03T00:19:49;102668.19;;;3.33;100.00
24788;BME280;12883;52.662;5.196;2023-03-03T00:22:35;102676.56;;;3.38;100.00
24788;BME280;12883;52.662;5.196;2023-03-03T00:27:52;102674.91;;;3.25;100.00
24788;BME280;12883;52.662;5.196;2023-03-03T00:30:27;102671.75;;;3.32;100.00
24788;BME280;12883;52.662;5.196;2023-03-03T00:32:53;102675.97;;;3.22;100.00
24788;BME280;12883;52.662;5.196;2023-03-03T00:35:24;102675.53;;;3.28;100.00
24788;BME280;12883;52.662;5.196;2023-03-03T00:37:55;102644.50;;;3.22;100.00
24788;BME280;12883;52.662;5.196;2023-03-03T00:40:35;102673.00;;;3.39;100.00
24788;BME280;12883;52.662;5.196;2023-03-03T00:43:27;102672.47;;;3.34;100.00
24788;BME280;12883;52.662;5.196;2023-03-03T00:45:57;102665.88;;;3.29;100.00
24788;BME280;12883;52.662;5.196;2023-03-03T00:50:51;102687.91;;;3.26;100.00
24788;BME280;12883;52.662;5.196;2023-03-03T00:53:19;102680.38;;;3.09;100.00
24788;BME280;12883;52.662;5.196;2023-03-03T00:55:47;102679.94;;;3.03;100.00
24788;BME280;12883;52.662;5.196;2023-03-03T00:58:12;102671.56;;;3.10;100.00
24788;BME280;12883;52.662;5.196;2023-03-03T01:00:38;102667.13;;;3.11;100.00
24788;BME280;12883;52.662;5.196;2023-03-03T01:03:08;102675.00;;;3.11;100.00
24788;BME280;12883;52.662;5.196;2023-03-03T01:05:36;102674.41;;;3.20;100.00
24788;BME280;12883;52.662;5.196;2023-03-03T01:08:02;102683.09;;;3.08;100.00
24788;BME280;12883;52.662;5.196;2023-03-03T01:10:30;102673.44;;;3.21;100.00
24788;BME280;12883;52.662;5.196;2023-03-03T01:12:56;102674.47;;;3.31;100.00
24788;BME280;12883;52.662;5.196;2023-03-03T01:15:23;102668.28;;;3.32;100.00
24788;BME280;12883;52.662;5.196;2023-03-03T01:17:49;102671.78;;;3.20;100.00
24788;BME280;12883;52.662;5.196;2023-03-03T01:20:15;102665.69;;;3.07;100.00
24788;BME280;12883;52.662;5.196;2023-03-03T01:22:40;102663.38;;;3.15;100.00
24788;BME280;12883;52.662;5.196;2023-03-03T01:25:06;102662.34;;;3.17;100.00
24788;BME280;12883;52.662;5.196;2023-03-03T01:27:34;102660.16;;;2.99;100.00
24788;BME280;12883;52.662;5.196;2023-03-03T01:29:59;102679.34;;;3.12;100.00
24788;BME280;12883;52.662;5.196;2023-03-03T01:32:26;102677.31;;;3.03;100.00
24788;BME280;12883;52.662;5.196;2023-03-03T01:34:52;102673.66;;;3.05;100.00
24788;BME280;12883;52.662;5.196;2023-03-03T01:37:17;102675.88;;;2.99;100.00
24788;BME280;12883;52.662;5.196;2023-03-03T01:39:47;102678.81;;;2.94;100.00
24788;BME280;12883;52.662;5.196;2023-03-03T01:42:13;102669.88;;;2.97;100.00
24788;BME280;12883;52.662;5.196;2023-03-03T01:44:40;102681.63;;;3.04;100.00
24788;BME280;12883;52.662;5.196;2023-03-03T01:49:40;102680.34;;;2.97;100.00
24788;BME280;12883;52.662;5.196;2023-03-03T01:52:17;102684.88;;;2.95;100.00
24788;BME280;12883;52.662;5.196;2023-03-03T01:54:50;102651.72;;;2.69;100.00
24788;BME280;12883;52.662;5.196;2023-03-03T01:57:31;102676.28;;;2.80;100.00
24788;BME280;12883;52.662;5.196;2023-03-03T01:59:58;102673.84;;;2.90;100.00
24788;BME280;12883;52.662;5.196;2023-03-03T02:02:26;102652.66;;;2.68;100.00
24788;BME280;12883;52.662;5.196;2023-03-03T02:04:52;102684.16;;;2.80;100.00
24788;BME280;12883;52.662;5.196;2023-03-03T02:07:18;102659.81;;;2.78;100.00
24788;BME280;12883;52.662;5.196;2023-03-03T02:10:14;102665.03;;;2.66;100.00
24788;BME280;12883;52.662;5.196;2023-03-03T02:12:43;102671.56;;;2.73;100.00
24788;BME280;12883;52.662;5.196;2023-03-03T02:17:42;102660.44;;;2.57;100.00
24788;BME280;12883;52.662;5.196;2023-03-03T02:20:51;102656.66;;;2.61;100.00
24788;BME280;12883;52.662;5.196;2023-03-03T02:23:39;102631.88;;;2.40;100.00
24788;BME280;12883;52.662;5.196;2023-03-03T02:26:12;102658.84;;;2.54;100.00
24788;BME280;12883;52.662;5.196;2023-03-03T02:28:39;102654.34;;;2.56;100.00
24788;BME280;12883;52.662;5.196;2023-03-03T02:31:11;102667.94;;;2.49;100.00
24788;BME280;12883;52.662;5.196;2023-03-03T02:33:44;102664.19;;;2.53;100.00
24788;BME280;12883;52.662;5.196;2023-03-03T02:36:33;102640.91;;;2.36;100.00
24788;BME280;12883;52.662;5.196;2023-03-03T02:39:15;102663.00;;;2.44;100.00
24788;BME280;12883;52.662;5.196;2023-03-03T02:41:58;102667.66;;;2.53;100.00
24788;BME280;12883;52.662;5.196;2023-03-03T02:44:28;102658.63;;;2.45;100.00
24788;BME280;12883;52.662;5.196;2023-03-03T02:46:56;102653.38;;;2.45;100.00
24788;BME280;12883;52.662;5.196;2023-03-03T02:49:27;102651.81;;;2.42;100.00
24788;BME280;12883;52.662;5.196;2023-03-03T02:51:53;102603.06;;;2.15;100.00
24788;BME280;12883;52.662;5.196;2023-03-03T02:54:21;102656.63;;;2.36;100.00
24788;BME280;12883;52.662;5.196;2023-03-03T02:56:47;102653.84;;;2.25;100.00
24788;BME280;12883;52.662;5.196;2023-03-03T02:59:13;102668.00;;;2.35;100.00
24788;BME280;12883;52.662;5.196;2023-03-03T03:01:38;102667.59;;;2.28;100.00
24788;BME280;12883;52.662;5.196;2023-03-03T03:04:12;102669.25;;;2.29;100.00
24788;BME280;12883;52.662;5.196;2023-03-03T03:06:39;102656.31;;;2.14;100.00
24788;BME280;12883;52.662;5.196;2023-03-03T03:09:06;102666.22;;;2.23;100.00
24788;BME280;12883;52.662;5.196;2023-03-03T03:11:31;102659.69;;;2.16;100.00
24788;BME280;12883;52.662;5.196;2023-03-03T03:13:57;102666.63;;;2.17;100.00
24788;BME280;12883;52.662;5.196;2023-03-03T03:16:22;102660.53;;;2.16;100.00
24788;BME280;12883;52.662;5.196;2023-03-03T03:18:48;102665.88;;;2.15;100.00
24788;BME280;12883;52.662;5.196;2023-03-03T03:21:15;102666.63;;;2.17;100.00
24788;BME280;12883;52.662;5.196;2023-03-03T03:23:40;102675.72;;;2.11;100.00
24788;BME280;12883;52.662;5.196;2023-03-03T03:26:06;102675.41;;;2.16;100.00
24788;BME280;12883;52.662;5.196;2023-03-03T03:28:32;102666.28;;;2.09;100.00
24788;BME280;12883;52.662;5.196;2023-03-03T03:30:57;102672.63;;;2.05;100.00
24788;BME280;12883;52.662;5.196;2023-03-03T03:33:23;102682.06;;;2.07;100.00
24788;BME280;12883;52.662;5.196;2023-03-03T03:35:49;102674.13;;;2.09;100.00
24788;BME280;12883;52.662;5.196;2023-03-03T03:38:14;102684.66;;;1.95;100.00
24788;BME280;12883;52.662;5.196;2023-03-03T03:40:40;102661.91;;;1.95;100.00
24788;BME280;12883;52.662;5.196;2023-03-03T03:43:06;102682.41;;;1.89;100.00
24788;BME280;12883;52.662;5.196;2023-03-03T03:45:31;102670.53;;;1.97;100.00
24788;BME280;12883;52.662;5.196;2023-03-03T03:47:56;102678.66;;;1.93;100.00
24788;BME280;12883;52.662;5.196;2023-03-03T03:50:22;102687.09;;;1.84;100.00
24788;BME280;12883;52.662;5.196;2023-03-03T03:52:48;102672.41;;;1.81;100.00
24788;BME280;12883;52.662;5.196;2023-03-03T03:55:14;102669.16;;;1.78;100.00
24788;BME280;12883;52.662;5.196;2023-03-03T03:57:40;102671.78;;;1.78;100.00
24788;BME280;12883;52.662;5.196;2023-03-03T04:00:05;102659.19;;;1.70;100.00
24788;BME280;12883;52.662;5.196;2023-03-03T04:02:33;102679.19;;;1.71;100.00
24788;BME280;12883;52.662;5.196;2023-03-03T04:04:58;102677.91;;;1.64;100.00
24788;BME280;12883;52.662;5.196;2023-03-03T04:07:23;102672.53;;;1.66;100.00
24788;BME280;12883;52.662;5.196;2023-03-03T04:09:49;102671.91;;;1.62;100.00
24788;BME280;12883;52.662;5.196;2023-03-03T04:12:14;102672.19;;;1.58;100.00
24788;BME280;12883;52.662;5.196;2023-03-03T04:14:39;102680.22;;;1.69;100.00
24788;BME280;12883;52.662;5.196;2023-03-03T04:17:05;102675.72;;;1.71;100.00
24788;BME280;12883;52.662;5.196;2023-03-03T04:19:30;102682.47;;;1.61;100.00
24788;BME280;12883;52.662;5.196;2023-03-03T04:21:55;102679.22;;;1.57;100.00
24788;BME280;12883;52.662;5.196;2023-03-03T04:24:20;102678.91;;;1.62;100.00
24788;BME280;12883;52.662;5.196;2023-03-03T04:26:46;102680.13;;;1.70;100.00
24788;BME280;12883;52.662;5.196;2023-03-03T04:29:11;102681.25;;;1.66;100.00
24788;BME280;12883;52.662;5.196;2023-03-03T04:31:36;102680.22;;;1.69;100.00
24788;BME280;12883;52.662;5.196;2023-03-03T04:34:02;102684.03;;;1.77;100.00
24788;BME280;12883;52.662;5.196;2023-03-03T04:36:27;102678.81;;;1.77;100.00
24788;BME280;12883;52.662;5.196;2023-03-03T04:38:53;102684.38;;;1.85;100.00
24788;BME280;12883;52.662;5.196;2023-03-03T04:41:18;102677.69;;;1.67;100.00
24788;BME280;12883;52.662;5.196;2023-03-03T04:43:43;102671.44;;;1.96;100.00
24788;BME280;12883;52.662;5.196;2023-03-03T04:46:09;102683.50;;;1.99;100.00
24788;BME280;12883;52.662;5.196;2023-03-03T04:48:34;102678.50;;;2.08;100.00
24788;BME280;12883;52.662;5.196;2023-03-03T04:50:59;102680.41;;;2.06;100.00
24788;BME280;12883;52.662;5.196;2023-03-03T04:53:25;102677.19;;;2.15;100.00
24788;BME280;12883;52.662;5.196;2023-03-03T04:55:51;102678.13;;;2.14;100.00
24788;BME280;12883;52.662;5.196;2023-03-03T04:58:17;102677.81;;;2.19;100.00
24788;BME280;12883;52.662;5.196;2023-03-03T05:00:47;102676.78;;;2.21;100.00
24788;BME280;12883;52.662;5.196;2023-03-03T05:03:17;102650.09;;;2.02;100.00
24788;BME280;12883;52.662;5.196;2023-03-03T05:05:45;102680.38;;;2.33;100.00
24788;BME280;12883;52.662;5.196;2023-03-03T05:08:10;102689.09;;;2.33;100.00
24788;BME280;12883;52.662;5.196;2023-03-03T05:10:36;102678.00;;;2.42;100.00
24788;BME280;12883;52.662;5.196;2023-03-03T05:13:02;102679.03;;;2.40;100.00
24788;BME280;12883;52.662;5.196;2023-03-03T05:15:27;102673.38;;;2.33;100.00
24788;BME280;12883;52.662;5.196;2023-03-03T05:17:52;102685.63;;;2.45;100.00
24788;BME280;12883;52.662;5.196;2023-03-03T05:20:21;102682.19;;;2.45;100.00
24788;BME280;12883;52.662;5.196;2023-03-03T05:22:46;102678.47;;;2.35;100.00
24788;BME280;12883;52.662;5.196;2023-03-03T05:25:12;102684.00;;;2.18;100.00
24788;BME280;12883;52.662;5.196;2023-03-03T05:27:37;102680.69;;;2.28;100.00
24788;BME280;12883;52.662;5.196;2023-03-03T05:30:03;102682.88;;;2.22;100.00
24788;BME280;12883;52.662;5.196;2023-03-03T05:32:29;102677.47;;;2.11;100.00
24788;BME280;12883;52.662;5.196;2023-03-03T05:34:54;102681.22;;;2.07;100.00
24788;BME280;12883;52.662;5.196;2023-03-03T05:37:19;102671.00;;;2.16;100.00
24788;BME280;12883;52.662;5.196;2023-03-03T05:39:45;102682.72;;;2.11;100.00
24788;BME280;12883;52.662;5.196;2023-03-03T05:42:11;102664.22;;;2.00;100.00
24788;BME280;12883;52.662;5.196;2023-03-03T05:44:37;102661.28;;;1.92;100.00
24788;BME280;12883;52.662;5.196;2023-03-03T05:47:03;102682.94;;;2.08;100.00
24788;BME280;12883;52.662;5.196;2023-03-03T05:49:28;102687.41;;;2.06;100.00
24788;BME280;12883;52.662;5.196;2023-03-03T05:51:54;102691.50;;;2.10;100.00
24788;BME280;12883;52.662;5.196;2023-03-03T05:54:19;102691.25;;;2.00;100.00
24788;BME280;12883;52.662;5.196;2023-03-03T05:56:44;102692.69;;;1.92;100.00
24788;BME280;12883;52.662;5.196;2023-03-03T05:59:10;102694.13;;;2.10;100.00
24788;BME280;12883;52.662;5.196;2023-03-03T06:01:35;102695.84;;;1.97;100.00
24788;BME280;12883;52.662;5.196;2023-03-03T06:04:00;102696.69;;;1.97;100.00
24788;BME280;12883;52.662;5.196;2023-03-03T06:06:26;102690.25;;;1.89;100.00
24788;BME280;12883;52.662;5.196;2023-03-03T06:08:52;102687.13;;;1.96;100.00
24788;BME280;12883;52.662;5.196;2023-03-03T06:11:18;102684.44;;;1.98;100.00
24788;BME280;12883;52.662;5.196;2023-03-03T06:13:43;102699.03;;;2.02;100.00
24788;BME280;12883;52.662;5.196;2023-03-03T06:16:09;102656.06;;;1.78;100.00
24788;BME280;12883;52.662;5.196;2023-03-03T06:18:34;102694.94;;;2.10;100.00
24788;BME280;12883;52.662;5.196;2023-03-03T06:21:00;102700.72;;;1.89;100.00
24788;BME280;12883;52.662;5.196;2023-03-03T06:23:25;102700.13;;;1.98;100.00
24788;BME280;12883;52.662;5.196;2023-03-03T06:25:51;102694.59;;;2.02;100.00
24788;BME280;12883;52.662;5.196;2023-03-03T06:28:17;102694.16;;;1.96;100.00
24788;BME280;12883;52.662;5.196;2023-03-03T06:30:43;102685.84;;;1.89;100.00
24788;BME280;12883;52.662;5.196;2023-03-03T06:33:08;102696.69;;;1.97;100.00
24788;BME280;12883;52.662;5.196;2023-03-03T06:35:33;102687.66;;;1.89;100.00
24788;BME280;12883;52.662;5.196;2023-03-03T06:37:59;102696.56;;;1.99;100.00
24788;BME280;12883;52.662;5.196;2023-03-03T06:40:24;102692.31;;;1.84;100.00
24788;BME280;12883;52.662;5.196;2023-03-03T06:42:50;102697.91;;;1.92;100.00
24788;BME280;12883;52.662;5.196;2023-03-03T06:45:15;102697.53;;;1.98;100.00
24788;BME280;12883;52.662;5.196;2023-03-03T06:47:40;102704.19;;;1.89;100.00
24788;BME280;12883;52.662;5.196;2023-03-03T06:50:07;102708.00;;;1.98;100.00
24788;BME280;12883;52.662;5.196;2023-03-03T06:52:35;102699.41;;;1.96;100.00
24788;BME280;12883;52.662;5.196;2023-03-03T06:55:09;102709.75;;;2.11;100.00
24788;BME280;12883;52.662;5.196;2023-03-03T06:57:35;102713.28;;;2.10;100.00
24788;BME280;12883;52.662;5.196;2023-03-03T07:00:13;102713.09;;;2.13;100.00
24788;BME280;12883;52.662;5.196;2023-03-03T07:02:40;102710.56;;;2.12;100.00
24788;BME280;12883;52.662;5.196;2023-03-03T07:05:10;102720.66;;;2.18;100.00
24788;BME280;12883;52.662;5.196;2023-03-03T07:07:37;102725.03;;;2.17;100.00
24788;BME280;12883;52.662;5.196;2023-03-03T07:10:10;102719.00;;;2.29;100.00
24788;BME280;12883;52.662;5.196;2023-03-03T07:12:40;102703.06;;;2.20;100.00
24788;BME280;12883;52.662;5.196;2023-03-03T07:15:21;102725.44;;;2.38;100.00
24788;BME280;12883;52.662;5.196;2023-03-03T07:17:49;102724.75;;;2.48;100.00
24788;BME280;12883;52.662;5.196;2023-03-03T07:20:42;102719.59;;;2.47;100.00
24788;BME280;12883;52.662;5.196;2023-03-03T07:23:19;102721.66;;;2.42;100.00
24788;BME280;12883;52.662;5.196;2023-03-03T07:25:45;102724.97;;;2.58;100.00
24788;BME280;12883;52.662;5.196;2023-03-03T07:30:45;102734.75;;;2.68;100.00
24788;BME280;12883;52.662;5.196;2023-03-03T07:33:22;102742.84;;;2.78;100.00
24788;BME280;12883;52.662;5.196;2023-03-03T07:35:49;102738.03;;;2.84;100.00
24788;BME280;12883;52.662;5.196;2023-03-03T07:38:34;102729.13;;;2.74;100.00
24788;BME280;12883;52.662;5.196;2023-03-03T07:41:09;102683.47;;;2.52;100.00
24788;BME280;12883;52.662;5.196;2023-03-03T07:43:37;102751.91;;;2.99;100.00
24788;BME280;12883;52.662;5.196;2023-03-03T07:48:56;102751.28;;;3.20;100.00
24788;BME280;12883;52.662;5.196;2023-03-03T07:51:29;102750.97;;;3.25;100.00
24788;BME280;12883;52.662;5.196;2023-03-03T07:56:40;102749.50;;;3.46;100.00
24788;BME280;12883;52.662;5.196;2023-03-03T07:59:23;102764.38;;;3.58;100.00
24788;BME280;12883;52.662;5.196;2023-03-03T08:01:56;102769.63;;;3.58;100.00
24788;BME280;12883;52.662;5.196;2023-03-03T08:07:11;102748.50;;;3.72;100.00
24788;BME280;12883;52.662;5.196;2023-03-03T08:09:42;102767.56;;;3.99;100.00
24788;BME280;12883;52.662;5.196;2023-03-03T08:12:15;102767.56;;;3.99;100.00
24788;BME280;12883;52.662;5.196;2023-03-03T08:14:42;102762.78;;;4.16;100.00
24788;BME280;12883;52.662;5.196;2023-03-03T08:17:20;102772.09;;;4.33;100.00
24788;BME280;12883;52.662;5.196;2023-03-03T08:19:47;102760.75;;;4.32;100.00
24788;BME280;12883;52.662;5.196;2023-03-03T08:22:32;102746.94;;;4.41;100.00
24788;BME280;12883;52.662;5.196;2023-03-03T08:24:58;102738.81;;;4.44;100.00
24788;BME280;12883;52.662;5.196;2023-03-03T08:27:23;102763.13;;;4.82;100.00
24788;BME280;12883;52.662;5.196;2023-03-03T08:29:49;102772.00;;;4.92;100.00
24788;BME280;12883;52.662;5.196;2023-03-03T08:32:14;102770.22;;;5.03;100.00
24788;BME280;12883;52.662;5.196;2023-03-03T08:34:40;102777.78;;;5.08;100.00
24788;BME280;12883;52.662;5.196;2023-03-03T08:37:05;102754.94;;;5.08;100.00
24788;BME280;12883;52.662;5.196;2023-03-03T08:39:31;102769.09;;;5.29;100.00
24788;BME280;12883;52.662;5.196;2023-03-03T08:41:57;102763.13;;;5.38;100.00
24788;BME280;12883;52.662;5.196;2023-03-03T08:44:22;102769.00;;;5.53;100.00
24788;BME280;12883;52.662;5.196;2023-03-03T08:46:47;102764.69;;;5.63;100.00
24788;BME280;12883;52.662;5.196;2023-03-03T08:49:13;102758.97;;;5.69;100.00
24788;BME280;12883;52.662;5.196;2023-03-03T08:51:38;102726.88;;;5.53;100.00
24788;BME280;12883;52.662;5.196;2023-03-03T08:54:04;102727.97;;;5.61;100.00
24788;BME280;12883;52.662;5.196;2023-03-03T08:56:29;102761.38;;;5.94;100.00
24788;BME280;12883;52.662;5.196;2023-03-03T08:58:55;102758.16;;;5.90;100.00
24788;BME280;12883;52.662;5.196;2023-03-03T09:01:20;102770.84;;;5.96;100.00
24788;BME280;12883;52.662;5.196;2023-03-03T09:03:45;102767.00;;;6.00;100.00
24788;BME280;12883;52.662;5.196;2023-03-03T09:06:11;102774.88;;;6.11;100.00
24788;BME280;12883;52.662;5.196;2023-03-03T09:08:36;102768.88;;;6.20;100.00
24788;BME280;12883;52.662;5.196;2023-03-03T09:11:08;102728.66;;;6.07;100.00
24788;BME280;12883;52.662;5.196;2023-03-03T09:13:34;102745.53;;;6.16;100.00
24788;BME280;12883;52.662;5.196;2023-03-03T09:15:59;102767.13;;;6.41;100.00
24788;BME280;12883;52.662;5.196;2023-03-03T09:18:37;102768.09;;;6.40;100.00
24788;BME280;12883;52.662;5.196;2023-03-03T09:21:16;102780.03;;;6.55;100.00
24788;BME280;12883;52.662;5.196;2023-03-03T09:26:29;102771.41;;;6.64;100.00
24788;BME280;12883;52.662;5.196;2023-03-03T09:29:15;102765.44;;;6.51;100.00
24788;BME280;12883;52.662;5.196;2023-03-03T09:31:47;102768.47;;;6.78;100.00
24788;BME280;12883;52.662;5.196;2023-03-03T09:37:00;102783.31;;;6.79;100.00
24788;BME280;12883;52.662;5.196;2023-03-03T09:39:28;102774.91;;;6.85;100.00
24788;BME280;12883;52.662;5.196;2023-03-03T09:50:29;102798.03;;;7.13;100.00
24788;BME280;12883;52.662;5.196;2023-03-03T09:53:26;102788.97;;;7.06;100.00
24788;BME280;12883;52.662;5.196;2023-03-03T10:04:54;102791.19;;;7.52;100.00
24788;BME280;12883;52.662;5.196;2023-03-03T10:13:16;102790.44;;;7.70;100.00
24788;BME280;12883;52.662;5.196;2023-03-03T10:18:38;102800.50;;;7.76;100.00
24788;BME280;12883;52.662;5.196;2023-03-03T10:21:09;102803.03;;;7.87;100.00
24788;BME280;12883;52.662;5.196;2023-03-03T10:26:54;102803.06;;;7.97;100.00
24788;BME280;12883;52.662;5.196;2023-03-03T10:32:36;102810.34;;;8.04;100.00
24788;BME280;12883;52.662;5.196;2023-03-03T10:40:40;102827.72;;;7.77;100.00
24788;BME280;12883;52.662;5.196;2023-03-03T10:43:37;102825.09;;;7.77;100.00
24788;BME280;12883;52.662;5.196;2023-03-03T10:54:08;102824.94;;;8.08;100.00
24788;BME280;12883;52.662;5.196;2023-03-03T10:57:02;102819.97;;;8.15;100.00
24788;BME280;12883;52.662;5.196;2023-03-03T11:02:11;102817.56;;;8.32;100.00
24788;BME280;12883;52.662;5.196;2023-03-03T11:04:53;102817.91;;;8.18;100.00
24788;BME280;12883;52.662;5.196;2023-03-03T11:07:41;102819.94;;;8.05;100.00
24788;BME280;12883;52.662;5.196;2023-03-03T11:15:58;102815.97;;;8.20;100.00
24788;BME280;12883;52.662;5.196;2023-03-03T11:21:34;102821.84;;;8.24;100.00
24788;BME280;12883;52.662;5.196;2023-03-03T11:24:27;102814.31;;;7.89;100.00
24788;BME280;12883;52.662;5.196;2023-03-03T11:40:19;102812.72;;;8.56;100.00
24788;BME280;12883;52.662;5.196;2023-03-03T11:43:09;102805.47;;;8.49;100.00
24788;BME280;12883;52.662;5.196;2023-03-03T11:45:46;102814.25;;;8.49;100.00
24788;BME280;12883;52.662;5.196;2023-03-03T11:48:21;102817.88;;;8.58;100.00
24788;BME280;12883;52.662;5.196;2023-03-03T11:51:01;102807.16;;;8.59;100.00
24788;BME280;12883;52.662;5.196;2023-03-03T11:56:13;102807.47;;;8.75;100.00
24788;BME280;12883;52.662;5.196;2023-03-03T11:58:57;102806.22;;;8.79;100.00
24788;BME280;12883;52.662;5.196;2023-03-03T12:01:34;102802.72;;;8.88;100.00
24788;BME280;12883;52.662;5.196;2023-03-03T12:04:12;102811.09;;;8.74;100.00
24788;BME280;12883;52.662;5.196;2023-03-03T12:14:58;102809.41;;;8.73;100.00
24788;BME280;12883;52.662;5.196;2023-03-03T12:20:24;102807.88;;;8.71;100.00
24788;BME280;12883;52.662;5.196;2023-03-03T12:25:46;102805.78;;;8.74;100.00
24788;BME280;12883;52.662;5.196;2023-03-03T12:37:01;102795.47;;;8.81;100.00
24788;BME280;12883;52.662;5.196;2023-03-03T12:42:22;102811.38;;;8.71;100.00
24788;BME280;12883;52.662;5.196;2023-03-03T12:47:45;102789.06;;;8.83;100.00
24788;BME280;12883;52.662;5.196;2023-03-03T12:50:20;102780.00;;;8.76;100.00
24788;BME280;12883;52.662;5.196;2023-03-03T12:55:47;102772.91;;;8.86;100.00
24788;BME280;12883;52.662;5.196;2023-03-03T13:05:54;102764.97;;;8.96;100.00
24788;BME280;12883;52.662;5.196;2023-03-03T13:08:44;102769.13;;;9.08;100.00
24788;BME280;12883;52.662;5.196;2023-03-03T13:13:52;102758.94;;;9.13;100.00
24788;BME280;12883;52.662;5.196;2023-03-03T13:19:26;102774.16;;;9.20;100.00
24788;BME280;12883;52.662;5.196;2023-03-03T13:21:59;102746.16;;;8.89;100.00
24788;BME280;12883;52.662;5.196;2023-03-03T13:29:40;102741.00;;;8.88;100.00
24788;BME280;12883;52.662;5.196;2023-03-03T13:32:17;102777.91;;;9.08;100.00
24788;BME280;12883;52.662;5.196;2023-03-03T13:37:34;102777.28;;;9.33;100.00
24788;BME280;12883;52.662;5.196;2023-03-03T13:45:15;102764.91;;;9.24;100.00
24788;BME280;12883;52.662;5.196;2023-03-03T13:50:46;102739.97;;;9.27;100.00
24788;BME280;12883;52.662;5.196;2023-03-03T13:56:21;102754.44;;;9.32;100.00
24788;BME280;12883;52.662;5.196;2023-03-03T13:59:19;102759.34;;;9.27;100.00
24788;BME280;12883;52.662;5.196;2023-03-03T14:02:00;102753.31;;;9.35;100.00
24788;BME280;12883;52.662;5.196;2023-03-03T14:07:11;102746.03;;;9.46;100.00
24788;BME280;12883;52.662;5.196;2023-03-03T14:10:01;102741.53;;;9.56;100.00
24788;BME280;12883;52.662;5.196;2023-03-03T14:13:02;102741.25;;;9.59;100.00
24788;BME280;12883;52.662;5.196;2023-03-03T14:15:30;102737.03;;;9.66;100.00
24788;BME280;12883;52.662;5.196;2023-03-03T14:20:28;102746.28;;;9.62;100.00
24788;BME280;12883;52.662;5.196;2023-03-03T14:23:00;102743.19;;;9.66;100.00
24788;BME280;12883;52.662;5.196;2023-03-03T14:25:26;102738.34;;;9.52;100.00
24788;BME280;12883;52.662;5.196;2023-03-03T14:28:03;102737.38;;;9.53;100.00
24788;BME280;12883;52.662;5.196;2023-03-03T14:30:37;102724.53;;;9.58;100.00
24788;BME280;12883;52.662;5.196;2023-03-03T14:35:40;102689.38;;;9.20;100.00
24788;BME280;12883;52.662;5.196;2023-03-03T14:38:18;102731.28;;;9.44;100.00
24788;BME280;12883;52.662;5.196;2023-03-03T14:40:46;102727.69;;;9.35;100.00
24788;BME280;12883;52.662;5.196;2023-03-03T14:45:45;102725.66;;;9.56;100.00
24788;BME280;12883;52.662;5.196;2023-03-03T14:50:48;102728.19;;;9.48;100.00
24788;BME280;12883;52.662;5.196;2023-03-03T14:55:43;102674.28;;;9.30;100.00
24788;BME280;12883;52.662;5.196;2023-03-03T14:58:28;102713.44;;;9.36;100.00
24788;BME280;12883;52.662;5.196;2023-03-03T15:01:13;102721.22;;;9.47;100.00
24788;BME280;12883;52.662;5.196;2023-03-03T15:06:43;102707.56;;;9.42;100.00
24788;BME280;12883;52.662;5.196;2023-03-03T15:12:17;102722.41;;;9.26;100.00
24788;BME280;12883;52.662;5.196;2023-03-03T15:14:45;102714.69;;;9.32;100.00
24788;BME280;12883;52.662;5.196;2023-03-03T15:17:18;102703.72;;;9.27;100.00
24788;BME280;12883;52.662;5.196;2023-03-03T15:19:52;102708.47;;;9.24;100.00
24788;BME280;12883;52.662;5.196;2023-03-03T15:25:09;102704.28;;;9.21;100.00
24788;BME280;12883;52.662;5.196;2023-03-03T15:27:44;102707.09;;;9.10;100.00
24788;BME280;12883;52.662;5.196;2023-03-03T15:30:24;102693.75;;;9.02;100.00
24788;BME280;12883;52.662;5.196;2023-03-03T15:33:04;102706.31;;;9.00;100.00
24788;BME280;12883;52.662;5.196;2023-03-03T15:35:47;102695.94;;;9.16;100.00
24788;BME280;12883;52.662;5.196;2023-03-03T15:54:47;102682.06;;;8.95;100.00
24788;BME280;12883;52.662;5.196;2023-03-03T15:57:31;102665.06;;;8.88;100.00
24788;BME280;12883;52.662;5.196;2023-03-03T16:05:18;102685.00;;;8.92;100.00
24788;BME280;12883;52.662;5.196;2023-03-03T16:11:06;102692.66;;;8.76;100.00
24788;BME280;12883;52.662;5.196;2023-03-03T16:16:53;102680.84;;;8.71;100.00
24788;BME280;12883;52.662;5.196;2023-03-03T16:19:41;102685.59;;;8.77;100.00
24788;BME280;12883;52.662;5.196;2023-03-03T16:27:23;102693.25;;;8.51;100.00
24788;BME280;12883;52.662;5.196;2023-03-03T16:32:50;102694.38;;;8.58;100.00
24788;BME280;12883;52.662;5.196;2023-03-03T16:35:25;102690.19;;;8.56;100.00
24788;BME280;12883;52.662;5.196;2023-03-03T16:38:07;102684.59;;;8.49;100.00
24788;BME280;12883;52.662;5.196;2023-03-03T16:40:44;102693.41;;;8.50;100.00
24788;BME280;12883;52.662;5.196;2023-03-03T16:46:45;102692.16;;;8.44;100.00
24788;BME280;12883;52.662;5.196;2023-03-03T16:49:33;102696.59;;;8.44;100.00
24788;BME280;12883;52.662;5.196;2023-03-03T16:52:22;102701.63;;;8.37;100.00
24788;BME280;12883;52.662;5.196;2023-03-03T16:54:54;102694.63;;;8.36;100.00
24788;BME280;12883;52.662;5.196;2023-03-03T17:02:48;102702.97;;;8.32;100.00